createdAt,value
2019-02-14T00:04:11.149Z,49.75
2019-02-14T00:09:21.818Z,49.25
2019-02-14T00:14:29.055Z,47.00
2019-02-14T00:19:35.470Z,48.17
2019-02-14T00:24:41.218Z,48.25
2019-02-14T00:29:50.302Z,46.50
2019-02-14T00:34:59.352Z,45.25
2019-02-14T00:40:07.531Z,45.75
2019-02-14T00:45:14.734Z,45.57
2019-02-14T00:50:20.441Z,47.75
2019-02-14T00:55:29.569Z,49.88
2019-02-14T01:00:38.582Z,45.38
2019-02-14T01:05:47.599Z,48.63
2019-02-14T01:10:56.607Z,46.75
2019-02-14T01:16:01.135Z,49.00
2019-02-14T01:21:06.726Z,49.50
2019-02-14T01:26:11.466Z,52.25
2019-02-14T01:31:17.046Z,47.38
2019-02-14T01:36:26.042Z,47.25
2019-02-14T01:41:30.806Z,49.00
2019-02-14T01:46:35.338Z,52.00
2019-02-14T01:51:41.650Z,52.50
2019-02-14T01:56:48.781Z,55.00
2019-02-14T02:01:53.367Z,47.75
2019-02-14T02:06:57.895Z,49.75
2019-02-14T02:12:04.499Z,52.13
2019-02-14T02:17:08.844Z,46.00
2019-02-14T02:22:13.410Z,47.00
2019-02-14T02:27:23.991Z,49.33
2019-02-14T02:32:27.371Z,45.00
2019-02-14T02:37:33.199Z,46.25
2019-02-14T02:42:42.307Z,45.75
2019-02-14T02:47:46.302Z,49.67
2019-02-14T02:52:54.570Z,47.25
2019-02-14T02:58:01.268Z,48.38
2019-02-14T03:03:05.951Z,52.00
2019-02-14T03:08:14.252Z,53.75
2019-02-14T03:13:19.083Z,50.25
2019-02-14T03:18:23.319Z,52.00
2019-02-14T03:23:29.260Z,50.63
2019-02-14T03:28:38.414Z,47.44
2019-02-14T03:33:47.575Z,50.75
2019-02-14T03:38:52.535Z,53.25
2019-02-14T03:43:58.467Z,46.37
2019-02-14T03:49:07.497Z,57.62
2019-02-14T03:54:11.950Z,47.00
2019-02-14T03:59:15.911Z,50.80
2019-02-14T04:04:21.570Z,50.75
2019-02-14T04:09:28.082Z,52.13
2019-02-14T04:14:36.960Z,55.12
2019-02-14T04:19:41.666Z,50.00
2019-02-14T04:24:49.739Z,53.00
2019-02-14T04:29:58.659Z,47.00
2019-02-14T04:35:07.886Z,51.63
2019-02-14T04:40:16.983Z,53.00
2019-02-14T04:45:21.723Z,52.50
2019-02-14T04:50:28.178Z,52.67
2019-02-14T04:55:35.522Z,54.13
2019-02-14T05:00:43.029Z,50.75
2019-02-14T05:05:47.479Z,50.75
2019-02-14T05:10:55.829Z,55.75
2019-02-14T05:16:02.959Z,50.50
2019-02-14T05:21:06.868Z,53.00
2019-02-14T05:26:14.217Z,59.25
2019-02-14T05:31:18.866Z,57.00
2019-02-14T05:36:28.246Z,59.00
2019-02-14T05:41:33.839Z,56.63
2019-02-14T05:46:42.727Z,56.25
2019-02-14T05:51:51.752Z,55.50
2019-02-14T05:56:56.446Z,56.50
2019-02-14T06:02:05.603Z,55.00
2019-02-14T06:07:12.961Z,60.75
2019-02-14T06:12:21.982Z,53.25
2019-02-14T06:17:31.118Z,58.87
2019-02-14T06:22:40.235Z,53.75
2019-02-14T06:27:44.292Z,61.25
2019-02-14T06:32:52.683Z,56.63
2019-02-14T06:38:00.183Z,57.00
2019-02-14T06:43:07.791Z,55.63
2019-02-14T06:48:14.310Z,58.33
2019-02-14T06:53:22.560Z,56.88
2019-02-14T06:58:27.166Z,55.25
2019-02-14T07:03:30.335Z,55.00
2019-02-14T07:08:34.446Z,50.75
2019-02-14T07:13:42.967Z,52.00
2019-02-14T07:18:47.808Z,48.75
2019-02-14T07:23:51.056Z,57.67
2019-02-14T07:28:56.685Z,55.50
2019-02-14T07:34:05.826Z,53.87
2019-02-14T07:39:11.145Z,49.40
2019-02-14T07:44:17.568Z,49.25
2019-02-14T07:49:25.023Z,49.75
2019-02-14T07:54:28.355Z,49.00
2019-02-14T07:59:34.115Z,50.63
2019-02-14T08:04:43.378Z,52.13
2019-02-14T08:09:50.162Z,49.50
2019-02-14T08:14:58.739Z,54.18
2019-02-14T08:20:02.321Z,50.67
2019-02-14T08:25:09.723Z,55.56
2019-02-14T08:30:17.952Z,52.13
2019-02-14T08:35:22.692Z,51.50
2019-02-14T08:40:27.980Z,50.25
2019-02-14T08:45:36.039Z,50.75
2019-02-14T08:50:40.915Z,49.25
2019-02-14T08:55:49.367Z,47.38
2019-02-14T09:00:56.101Z,50.63
2019-02-14T09:06:00.127Z,53.00
2019-02-14T09:11:04.174Z,55.50
2019-02-14T09:16:08.335Z,48.00
2019-02-14T09:21:16.765Z,43.00
2019-02-14T09:26:26.690Z,48.00
2019-02-14T09:31:33.193Z,45.33
2019-02-14T09:36:40.496Z,37.13
2019-02-14T09:41:47.808Z,35.75
2019-02-14T09:46:51.919Z,32.67
2019-02-14T09:51:57.747Z,26.50
2019-02-14T09:57:02.438Z,28.50
2019-02-14T10:02:08.944Z,22.43
2019-02-14T10:07:16.948Z,23.87
2019-02-14T10:12:20.609Z,24.00
2019-02-14T10:17:25.139Z,28.50
2019-02-14T10:22:33.230Z,24.63
2019-02-14T10:27:41.979Z,26.25
2019-02-14T10:32:46.731Z,26.50
2019-02-14T10:37:51.138Z,25.25
2019-02-14T10:42:54.862Z,22.00
2019-02-14T10:48:02.143Z,24.00
2019-02-14T10:53:06.687Z,25.00
2019-02-14T10:58:10.508Z,26.50
2019-02-14T11:03:19.927Z,30.50
2019-02-14T11:08:31.755Z,30.62
2019-02-14T11:13:33.282Z,35.25
2019-02-14T11:18:44.223Z,44.38
2019-02-14T11:23:48.946Z,49.00
2019-02-14T11:28:58.025Z,55.00
2019-02-14T11:34:07.289Z,45.58
2019-02-14T11:39:16.223Z,53.00
2019-02-14T11:44:24.385Z,46.88
2019-02-14T11:49:31.702Z,47.50
2019-02-14T11:54:40.862Z,51.25
2019-02-14T11:59:45.654Z,54.00
2019-02-14T12:04:54.008Z,55.00
2019-02-14T12:10:12.930Z,53.13
2019-02-14T12:15:13.287Z,52.00
2019-02-14T12:20:18.970Z,58.00
2019-02-14T12:25:30.275Z,48.00
2019-02-14T12:30:40.351Z,47.73
2019-02-14T12:35:44.844Z,35.50
2019-02-14T12:40:52.140Z,33.38
2019-02-14T12:45:56.761Z,45.00
2019-02-14T12:51:03.178Z,32.25
2019-02-14T12:56:12.134Z,37.75
2019-02-14T13:01:22.000Z,50.38
2019-02-14T13:06:30.831Z,54.13
2019-02-14T13:11:39.827Z,55.25
2019-02-14T13:16:47.198Z,55.44
2019-02-14T13:21:56.491Z,51.63
2019-02-14T13:27:01.438Z,45.00
2019-02-14T13:32:07.566Z,50.38
2019-02-14T13:37:12.451Z,51.50
2019-02-14T13:42:16.503Z,50.50
2019-02-14T13:47:21.127Z,52.50
2019-02-14T13:52:28.993Z,49.88
2019-02-14T13:57:38.095Z,48.25
2019-02-14T14:02:42.560Z,56.50
2019-02-14T14:07:46.648Z,55.00
2019-02-14T14:12:53.171Z,55.33
2019-02-14T14:17:59.466Z,51.25
2019-02-14T14:23:04.828Z,44.29
2019-02-14T14:28:11.028Z,56.75
2019-02-14T14:33:15.358Z,52.00
2019-02-14T14:38:19.841Z,48.00
2019-02-14T14:43:27.009Z,48.67
2019-02-14T14:48:36.309Z,48.25
2019-02-14T14:53:44.264Z,45.88
2019-02-14T14:58:50.586Z,42.88
2019-02-14T15:03:54.794Z,42.50
2019-02-14T15:09:04.986Z,48.25
2019-02-14T15:14:09.774Z,51.25
2019-02-14T15:19:18.666Z,61.13
2019-02-14T15:24:27.400Z,62.62
2019-02-14T15:29:33.658Z,62.25
2019-02-14T15:34:40.270Z,63.75
2019-02-14T15:39:49.071Z,66.25
2019-02-14T15:44:56.269Z,64.87
2019-02-14T15:50:06.858Z,67.78
2019-02-14T15:55:13.694Z,66.75
2019-02-14T16:00:24.975Z,67.55
2019-02-14T16:05:32.172Z,70.50
2019-02-14T16:10:41.639Z,77.89
2019-02-14T16:15:45.878Z,74.50
2019-02-14T16:20:54.550Z,73.25
2019-02-14T16:26:01.601Z,74.22
2019-02-14T16:31:11.187Z,74.22
2019-02-14T16:36:18.697Z,75.00
2019-02-14T16:41:30.235Z,75.67
2019-02-14T16:46:38.241Z,79.00
2019-02-14T16:51:49.183Z,76.89
2019-02-14T16:57:00.135Z,83.43
2019-02-14T17:02:09.640Z,78.00
2019-02-14T17:07:20.556Z,78.78
2019-02-14T17:12:28.312Z,80.22
2019-02-14T17:17:39.486Z,79.70
2019-02-14T17:22:44.811Z,79.57
2019-02-14T17:27:55.404Z,91.00
2019-02-14T17:33:04.161Z,87.10
2019-02-14T17:38:14.552Z,87.50
2019-02-14T17:43:24.928Z,84.60
2019-02-14T17:48:33.471Z,86.70
2019-02-14T17:53:40.047Z,85.29
2019-02-14T17:58:50.591Z,78.89
2019-02-14T18:03:58.514Z,80.67
2019-02-14T18:09:08.861Z,88.90
2019-02-14T18:14:12.267Z,90.00
2019-02-14T18:19:15.867Z,85.00
2019-02-14T18:24:23.783Z,86.22
2019-02-14T18:29:33.355Z,90.22
2019-02-14T18:34:45.978Z,88.18
2019-02-14T18:39:48.873Z,90.00
2019-02-14T18:44:59.249Z,92.89
2019-02-14T18:50:08.470Z,93.20
2019-02-14T18:55:19.167Z,80.22
2019-02-14T19:00:27.094Z,82.33
2019-02-14T19:05:36.610Z,81.11
2019-02-14T19:10:47.008Z,89.40
2019-02-14T19:15:54.988Z,88.33
2019-02-14T19:21:07.248Z,81.70
2019-02-14T19:26:17.530Z,81.44
2019-02-14T19:31:20.520Z,88.00
2019-02-14T19:36:31.356Z,81.22
2019-02-14T19:41:40.494Z,83.80
2019-02-14T19:46:51.191Z,82.20
2019-02-14T19:51:56.185Z,87.86
2019-02-14T19:57:03.908Z,79.67
2019-02-14T20:02:14.642Z,84.11
2019-02-14T20:07:19.663Z,90.75
2019-02-14T20:12:27.229Z,93.33
2019-02-14T20:17:35.428Z,92.89
2019-02-14T20:22:43.472Z,85.67
2019-02-14T20:27:53.361Z,88.89
2019-02-14T20:33:05.053Z,101.20
2019-02-14T20:38:13.950Z,97.70
2019-02-14T20:43:24.061Z,98.67
2019-02-14T20:48:32.396Z,80.89
2019-02-14T20:53:43.207Z,91.10
2019-02-14T20:58:46.606Z,81.00
2019-02-14T21:03:57.286Z,79.11
2019-02-14T21:09:06.489Z,77.11
2019-02-14T21:14:19.310Z,83.22
2019-02-14T21:19:31.121Z,87.00
2019-02-14T21:24:40.080Z,80.90
2019-02-14T21:29:49.656Z,78.75
2019-02-14T21:34:58.300Z,79.20
2019-02-14T21:40:05.823Z,76.75
2019-02-14T21:45:11.056Z,77.00
2019-02-14T21:50:19.871Z,80.00
2019-02-14T21:55:29.926Z,85.33
2019-02-14T22:00:37.191Z,79.33
2019-02-14T22:05:42.158Z,76.71
2019-02-14T22:10:45.031Z,84.00
2019-02-14T22:15:48.854Z,86.00
2019-02-14T22:20:57.205Z,87.11
2019-02-14T22:26:08.411Z,85.33
2019-02-14T22:31:11.819Z,76.00
2019-02-14T22:36:21.913Z,87.11
2019-02-14T22:41:32.026Z,76.78
2019-02-14T22:46:37.167Z,77.50
2019-02-14T22:51:45.567Z,73.00
2019-02-14T22:56:52.284Z,75.25
2019-02-14T23:02:00.347Z,111.50
2019-02-14T23:07:04.095Z,69.75
2019-02-14T23:12:12.887Z,70.50
2019-02-14T23:17:19.548Z,69.00
2019-02-14T23:22:23.762Z,74.00
2019-02-14T23:27:30.492Z,68.00
2019-02-14T23:32:37.569Z,71.67
2019-02-14T23:37:47.994Z,73.67
2019-02-14T23:42:52.886Z,71.71
2019-02-14T23:47:59.681Z,70.62
2019-02-14T23:53:07.907Z,68.67
2019-02-14T23:58:17.907Z,66.67
